createdAt,value
2019-04-26T00:00:38.348Z,43.63
2019-04-26T00:02:52.137Z,45.03
2019-04-26T00:05:00.478Z,42.20
2019-04-26T00:07:09.670Z,41.83
2019-04-26T00:09:27.969Z,43.58
2019-04-26T00:11:43.571Z,53.15
2019-04-26T00:14:25.568Z,48.00
2019-04-26T00:16:56.013Z,43.42
2019-04-26T00:19:03.886Z,39.38
2019-04-26T00:21:11.937Z,37.45
2019-04-26T00:23:19.963Z,40.50
2019-04-26T00:25:27.882Z,42.88
2019-04-26T00:27:35.719Z,37.95
2019-04-26T00:29:43.518Z,39.15
2019-04-26T00:31:51.424Z,39.78
2019-04-26T00:33:59.353Z,36.73
2019-04-26T00:36:07.160Z,39.27
2019-04-26T00:38:14.837Z,41.23
2019-04-26T00:40:22.545Z,40.65
2019-04-26T00:42:32.531Z,40.78
2019-04-26T00:44:41.881Z,36.65
2019-04-26T00:46:54.416Z,33.10
2019-04-26T00:49:05.667Z,33.83
2019-04-26T00:51:15.316Z,38.98
2019-04-26T00:53:25.494Z,39.80
2019-04-26T00:55:35.332Z,35.28
2019-04-26T00:57:44.119Z,34.70
2019-04-26T00:59:53.393Z,41.35
2019-04-26T01:02:08.479Z,36.30
2019-04-26T01:04:17.087Z,37.10
2019-04-26T01:06:26.918Z,36.48
2019-04-26T01:08:34.782Z,35.70
2019-04-26T01:10:42.596Z,31.82
2019-04-26T01:12:50.487Z,42.15
2019-04-26T01:14:58.294Z,37.03
2019-04-26T01:17:06.028Z,31.60
2019-04-26T01:19:18.516Z,30.85
2019-04-26T01:21:30.550Z,30.75
2019-04-26T01:23:41.965Z,29.98
2019-04-26T01:26:07.890Z,39.27
2019-04-26T01:28:31.870Z,36.70
2019-04-26T01:30:40.910Z,41.55
2019-04-26T01:32:49.313Z,31.42
2019-04-26T01:34:58.198Z,40.10
2019-04-26T01:37:06.337Z,31.52
2019-04-26T01:39:19.689Z,39.88
2019-04-26T01:41:38.677Z,34.53
2019-04-26T01:44:07.926Z,35.55
2019-04-26T01:46:24.817Z,34.20
2019-04-26T01:48:47.635Z,37.23
2019-04-26T01:50:55.589Z,30.57
2019-04-26T01:53:06.195Z,40.92
2019-04-26T01:55:14.844Z,35.67
2019-04-26T01:57:27.304Z,43.63
2019-04-26T01:59:40.954Z,36.80
2019-04-26T02:02:09.316Z,34.58
2019-04-26T02:04:17.166Z,37.70
2019-04-26T02:06:32.018Z,50.03
2019-04-26T02:08:34.717Z,38.30
2019-04-26T02:10:42.485Z,41.67
2019-04-26T02:12:51.415Z,41.35
2019-04-26T02:14:59.146Z,40.13
2019-04-26T02:17:07.161Z,34.67
2019-04-26T02:19:15.153Z,35.90
2019-04-26T02:21:37.644Z,33.75
2019-04-26T02:23:55.163Z,38.63
2019-04-26T02:26:21.538Z,38.00
2019-04-26T02:28:30.336Z,35.60
2019-04-26T02:30:38.554Z,32.57
2019-04-26T02:32:46.312Z,35.25
2019-04-26T02:34:54.418Z,31.07
2019-04-26T02:37:06.437Z,40.53
2019-04-26T02:39:29.377Z,36.57
2019-04-26T02:41:37.699Z,41.60
2019-04-26T02:43:49.460Z,37.33
2019-04-26T02:46:13.787Z,35.53
2019-04-26T02:48:34.836Z,36.57
2019-04-26T02:50:50.179Z,33.57
2019-04-26T02:53:24.883Z,37.13
2019-04-26T02:56:13.941Z,35.43
2019-04-26T02:58:25.062Z,32.67
2019-04-26T03:00:33.944Z,36.70
2019-04-26T03:02:44.111Z,39.53
2019-04-26T03:04:57.335Z,39.43
2019-04-26T03:07:13.385Z,34.33
2019-04-26T03:09:22.997Z,46.63
2019-04-26T03:11:35.184Z,39.57
2019-04-26T03:14:18.429Z,34.40
2019-04-26T03:16:39.465Z,31.43
2019-04-26T03:19:00.697Z,61.60
2019-04-26T03:21:21.372Z,41.20
2019-04-26T03:23:59.638Z,39.20
2019-04-26T03:27:03.757Z,30.63
2019-04-26T03:29:35.416Z,37.93
2019-04-26T03:32:23.849Z,31.70
2019-04-26T03:35:00.276Z,34.60
2019-04-26T03:38:05.722Z,37.73
2019-04-26T03:40:40.279Z,29.60
2019-04-26T03:43:36.979Z,31.10
2019-04-26T03:46:33.600Z,34.57
2019-04-26T03:49:45.851Z,39.57
2019-04-26T03:52:20.250Z,38.40
2019-04-26T03:54:32.575Z,30.27
2019-04-26T03:57:13.648Z,33.63
2019-04-26T03:59:53.452Z,34.83
2019-04-26T04:02:19.245Z,31.83
2019-04-26T04:04:53.167Z,36.27
2019-04-26T04:07:05.046Z,33.37
2019-04-26T04:09:17.939Z,32.83
2019-04-26T04:11:33.457Z,28.77
2019-04-26T04:14:26.630Z,30.67
2019-04-26T04:17:21.160Z,39.93
2019-04-26T04:20:40.504Z,29.53
2019-04-26T04:22:59.945Z,33.10
2019-04-26T04:25:13.493Z,35.83
2019-04-26T04:27:45.947Z,33.17
2019-04-26T04:30:31.826Z,36.97
2019-04-26T04:33:33.501Z,32.57
2019-04-26T04:35:53.230Z,34.30
2019-04-26T04:38:14.397Z,33.83
2019-04-26T04:41:18.552Z,35.00
2019-04-26T04:43:44.159Z,36.00
2019-04-26T04:47:24.322Z,33.33
2019-04-26T04:50:31.002Z,29.52
2019-04-26T04:53:19.157Z,31.40
2019-04-26T04:55:55.292Z,34.70
2019-04-26T04:58:20.794Z,29.40
2019-04-26T05:01:28.252Z,31.40
2019-04-26T05:04:10.459Z,30.88
2019-04-26T05:06:45.025Z,30.07
2019-04-26T05:09:29.573Z,25.35
2019-04-26T05:12:21.101Z,37.13
2019-04-26T05:15:13.903Z,30.75
2019-04-26T05:17:57.782Z,31.70
2019-04-26T05:20:35.026Z,30.43
2019-04-26T05:23:26.366Z,35.25
2019-04-26T05:26:58.328Z,32.48
2019-04-26T05:30:00.278Z,34.08
2019-04-26T05:32:27.415Z,39.73
2019-04-26T05:34:52.751Z,28.15
2019-04-26T05:37:55.558Z,33.35
2019-04-26T05:40:29.231Z,30.53
2019-04-26T05:43:35.975Z,27.82
2019-04-26T05:46:47.104Z,32.58
2019-04-26T05:49:56.248Z,33.67
2019-04-26T05:53:09.772Z,32.73
2019-04-26T05:56:48.125Z,29.72
2019-04-26T05:59:19.247Z,34.55
2019-04-26T06:02:03.313Z,29.98
2019-04-26T06:04:48.621Z,30.92
2019-04-26T06:07:30.058Z,35.92
2019-04-26T06:10:41.969Z,31.12
2019-04-26T06:13:35.328Z,29.70
2019-04-26T06:15:58.197Z,32.55
2019-04-26T06:18:55.797Z,29.55
2019-04-26T06:21:46.665Z,30.68
2019-04-26T06:24:39.991Z,40.05
2019-04-26T06:27:56.191Z,31.15
2019-04-26T06:30:45.553Z,35.15
2019-04-26T06:33:33.292Z,31.55
2019-04-26T06:35:46.281Z,31.80
2019-04-26T06:39:18.994Z,35.33
2019-04-26T06:42:24.872Z,32.55
2019-04-26T06:44:55.010Z,34.10
2019-04-26T06:47:35.739Z,30.25
2019-04-26T06:50:27.197Z,29.23
2019-04-26T06:52:43.005Z,34.10
2019-04-26T06:55:10.650Z,25.27
2019-04-26T06:58:14.311Z,29.60
2019-04-26T07:00:30.519Z,29.18
2019-04-26T07:03:15.825Z,27.87
2019-04-26T07:05:29.938Z,29.55
2019-04-26T07:08:28.109Z,28.50
2019-04-26T07:11:41.022Z,31.37
2019-04-26T07:14:54.726Z,32.30
2019-04-26T07:17:20.661Z,33.98
2019-04-26T07:20:36.397Z,28.07
2019-04-26T07:24:05.913Z,30.75
2019-04-26T07:27:11.467Z,30.15
2019-04-26T07:29:50.436Z,33.08
2019-04-26T07:32:29.019Z,25.68
2019-04-26T07:35:17.957Z,31.10
2019-04-26T07:38:21.112Z,24.02
2019-04-26T07:41:35.793Z,29.63
2019-04-26T07:44:43.607Z,31.45
2019-04-26T07:47:39.676Z,30.77
2019-04-26T07:50:55.441Z,35.60
2019-04-26T07:53:26.458Z,40.75
2019-04-26T07:55:58.952Z,28.12
2019-04-26T07:59:07.209Z,36.88
2019-04-26T08:01:55.749Z,27.40
2019-04-26T08:04:10.030Z,29.42
2019-04-26T08:06:52.298Z,26.23
2019-04-26T08:09:24.883Z,29.45
2019-04-26T08:11:38.258Z,28.62
2019-04-26T08:14:17.077Z,27.77
2019-04-26T08:16:44.483Z,26.42
2019-04-26T08:19:02.603Z,30.55
2019-04-26T08:21:23.143Z,27.62
2019-04-26T08:23:42.079Z,27.10
2019-04-26T08:25:54.652Z,21.45
2019-04-26T08:28:07.254Z,35.75
2019-04-26T08:30:19.365Z,20.55
2019-04-26T08:32:33.413Z,24.57
2019-04-26T08:34:45.807Z,25.15
2019-04-26T08:37:09.071Z,21.87
2019-04-26T08:39:44.506Z,29.12
2019-04-26T08:41:42.061Z,30.43
2019-04-26T08:44:14.454Z,28.32
2019-04-26T08:46:43.307Z,24.27
2019-04-26T08:49:11.118Z,19.55
2019-04-26T08:51:21.990Z,22.67
2019-04-26T08:53:33.944Z,19.05
2019-04-26T08:55:45.523Z,18.60
2019-04-26T08:57:58.239Z,22.55
2019-04-26T09:00:12.333Z,20.90
2019-04-26T09:02:52.137Z,19.15
2019-04-26T09:05:25.013Z,19.37
2019-04-26T09:07:37.188Z,22.13
2019-04-26T09:09:57.187Z,31.50
2019-04-26T09:12:03.922Z,26.15
2019-04-26T09:14:13.700Z,24.07
2019-04-26T09:16:23.189Z,22.65
2019-04-26T09:18:42.410Z,28.57
2019-04-26T09:20:42.816Z,24.23
2019-04-26T09:23:21.448Z,26.37
2019-04-26T09:25:34.508Z,29.20
2019-04-26T09:27:47.962Z,34.70
2019-04-26T09:30:17.351Z,27.93
2019-04-26T09:32:29.407Z,24.50
2019-04-26T09:34:41.320Z,28.50
2019-04-26T09:36:46.811Z,19.00
2019-04-26T09:38:54.521Z,24.10
2019-04-26T09:41:02.262Z,41.42
2019-04-26T09:43:31.573Z,27.40
2019-04-26T09:46:01.078Z,28.80
2019-04-26T09:48:45.837Z,23.98
2019-04-26T09:50:54.314Z,26.52
2019-04-26T09:53:02.096Z,26.37
2019-04-26T09:55:10.097Z,46.85
2019-04-26T09:57:17.857Z,30.68
2019-04-26T09:59:25.783Z,22.20
2019-04-26T10:01:34.075Z,18.62
2019-04-26T10:03:42.260Z,22.93
2019-04-26T10:05:52.161Z,22.93
2019-04-26T10:07:59.843Z,20.45
2019-04-26T10:10:08.147Z,24.77
2019-04-26T10:12:34.004Z,19.10
2019-04-26T10:14:53.531Z,22.32
2019-04-26T10:17:11.553Z,17.75
2019-04-26T10:19:31.653Z,23.92
2019-04-26T10:21:39.605Z,19.77
2019-04-26T10:23:47.318Z,19.82
2019-04-26T10:25:55.327Z,20.10
2019-04-26T10:28:03.885Z,20.37
2019-04-26T10:30:14.801Z,27.95
2019-04-26T10:32:26.278Z,19.17
2019-04-26T10:34:32.048Z,22.15
2019-04-26T10:36:39.841Z,16.17
2019-04-26T10:38:47.805Z,13.55
2019-04-26T10:40:55.630Z,15.95
2019-04-26T10:43:04.426Z,24.12
2019-04-26T10:45:14.651Z,15.93
2019-04-26T10:47:22.243Z,19.42
2019-04-26T10:49:44.749Z,19.10
2019-04-26T10:51:52.504Z,21.10
2019-04-26T10:54:10.338Z,17.77
2019-04-26T10:56:35.721Z,12.65
2019-04-26T10:58:48.320Z,19.27
2019-04-26T11:00:57.555Z,13.58
2019-04-26T11:03:06.170Z,12.95
2019-04-26T11:05:18.291Z,12.53
2019-04-26T11:07:23.992Z,18.00
2019-04-26T11:09:32.178Z,13.95
2019-04-26T11:11:41.023Z,17.37
2019-04-26T11:13:48.854Z,12.40
2019-04-26T11:15:56.950Z,13.95
2019-04-26T11:18:04.947Z,20.23
2019-04-26T11:20:13.304Z,17.25
2019-04-26T11:22:28.933Z,13.10
2019-04-26T11:24:30.449Z,13.18
2019-04-26T11:26:37.937Z,18.70
2019-04-26T11:28:45.862Z,16.77
2019-04-26T11:30:55.844Z,15.05
2019-04-26T11:33:03.153Z,15.78
2019-04-26T11:35:11.013Z,12.95
2019-04-26T11:37:19.410Z,18.35
2019-04-26T11:39:28.234Z,15.25
2019-04-26T11:41:37.636Z,18.10
2019-04-26T11:43:49.071Z,15.70
2019-04-26T11:46:04.302Z,15.70
2019-04-26T11:48:04.895Z,22.00
2019-04-26T11:50:16.082Z,20.15
2019-04-26T11:52:23.566Z,18.90
2019-04-26T11:54:31.432Z,13.53
2019-04-26T11:56:39.245Z,16.67
2019-04-26T11:58:47.061Z,13.30
2019-04-26T12:00:58.902Z,14.70
2019-04-26T12:03:06.323Z,14.75
2019-04-26T12:05:23.857Z,17.07
2019-04-26T12:07:35.511Z,15.13
2019-04-26T12:09:47.383Z,13.70
2019-04-26T12:12:04.561Z,17.52
2019-04-26T12:14:04.649Z,15.55
2019-04-26T12:16:14.741Z,16.55
2019-04-26T12:18:22.377Z,14.25
2019-04-26T12:20:29.797Z,16.02
2019-04-26T12:22:39.412Z,19.10
2019-04-26T12:24:46.837Z,15.23
2019-04-26T12:26:55.861Z,11.80
2019-04-26T12:29:04.168Z,14.58
2019-04-26T12:31:11.649Z,15.10
2019-04-26T12:33:19.047Z,13.05
2019-04-26T12:35:29.869Z,12.50
2019-04-26T12:37:36.209Z,20.52
2019-04-26T12:39:43.805Z,24.85
2019-04-26T12:41:51.646Z,17.52
2019-04-26T12:44:03.080Z,15.35
2019-04-26T12:46:31.951Z,22.25
2019-04-26T12:48:39.923Z,15.88
2019-04-26T12:50:47.861Z,14.07
2019-04-26T12:52:56.187Z,18.82
2019-04-26T12:55:05.493Z,13.18
2019-04-26T12:57:12.940Z,16.32
2019-04-26T12:59:24.888Z,17.15
2019-04-26T13:01:29.601Z,12.37
2019-04-26T13:03:37.083Z,15.45
2019-04-26T13:05:44.990Z,18.35
2019-04-26T13:07:54.479Z,15.25
2019-04-26T13:10:19.977Z,16.95
2019-04-26T13:12:43.993Z,18.15
2019-04-26T13:15:16.867Z,15.43
2019-04-26T13:17:25.623Z,21.15
2019-04-26T13:19:33.183Z,15.00
2019-04-26T13:21:40.872Z,17.30
2019-04-26T13:23:49.112Z,25.85
2019-04-26T13:25:59.639Z,20.12
2019-04-26T13:28:07.080Z,16.57
2019-04-26T13:30:16.748Z,22.40
2019-04-26T13:32:24.714Z,21.87
2019-04-26T13:34:33.360Z,13.75
2019-04-26T13:36:41.863Z,18.82
2019-04-26T13:38:49.887Z,25.85
2019-04-26T13:40:59.805Z,13.28
2019-04-26T13:43:07.945Z,18.65
2019-04-26T13:45:33.619Z,19.27
2019-04-26T13:48:09.123Z,18.10
2019-04-26T13:50:38.938Z,18.12
2019-04-26T13:52:46.860Z,23.42
2019-04-26T13:54:55.432Z,19.30
2019-04-26T13:57:06.107Z,13.83
2019-04-26T13:59:14.558Z,17.70
2019-04-26T14:01:22.599Z,17.17
2019-04-26T14:03:31.556Z,20.48
2019-04-26T14:05:40.379Z,22.80
2019-04-26T14:07:48.325Z,22.25
2019-04-26T14:09:56.268Z,20.57
2019-04-26T14:12:17.885Z,24.92
2019-04-26T14:14:14.152Z,21.65
2019-04-26T14:16:22.813Z,17.27
2019-04-26T14:18:34.534Z,21.52
2019-04-26T14:20:41.249Z,23.67
2019-04-26T14:23:01.331Z,25.35
2019-04-26T14:25:12.438Z,23.22
2019-04-26T14:27:34.017Z,21.97
2019-04-26T14:29:42.051Z,21.37
2019-04-26T14:31:51.492Z,18.37
2019-04-26T14:34:01.220Z,19.27
2019-04-26T14:36:17.429Z,20.65
2019-04-26T14:38:27.798Z,24.12
2019-04-26T14:40:29.993Z,23.20
2019-04-26T14:42:46.115Z,27.85
2019-04-26T14:44:49.700Z,24.67
2019-04-26T14:46:58.067Z,20.68
2019-04-26T14:49:11.407Z,24.98
2019-04-26T14:51:19.193Z,31.95
2019-04-26T14:53:26.971Z,21.17
2019-04-26T14:55:35.140Z,21.55
2019-04-26T14:57:46.777Z,23.98
2019-04-26T14:59:58.159Z,26.33
2019-04-26T15:02:28.067Z,33.63
2019-04-26T15:04:53.358Z,26.75
2019-04-26T15:07:02.404Z,28.95
2019-04-26T15:09:17.943Z,21.57
2019-04-26T15:11:22.785Z,29.32
2019-04-26T15:13:34.355Z,24.70
2019-04-26T15:15:40.192Z,25.05
2019-04-26T15:17:47.914Z,20.85
2019-04-26T15:19:56.056Z,22.80
2019-04-26T15:22:10.084Z,26.80
2019-04-26T15:24:13.568Z,25.95
2019-04-26T15:26:24.287Z,24.52
2019-04-26T15:28:32.822Z,20.27
2019-04-26T15:30:46.403Z,25.97
2019-04-26T15:32:50.641Z,21.95
2019-04-26T15:34:58.596Z,22.87
2019-04-26T15:37:06.685Z,23.18
2019-04-26T15:39:25.378Z,23.12
2019-04-26T15:41:59.435Z,24.95
2019-04-26T15:44:28.227Z,19.70
2019-04-26T15:47:10.098Z,18.45
2019-04-26T15:49:39.567Z,22.93
2019-04-26T15:51:47.418Z,21.87
2019-04-26T15:53:55.933Z,22.48
2019-04-26T15:56:04.210Z,20.23
2019-04-26T15:58:12.010Z,25.17
2019-04-26T16:00:22.402Z,18.95
2019-04-26T16:02:32.025Z,24.45
2019-04-26T16:04:40.136Z,19.60
2019-04-26T16:06:48.000Z,24.85
2019-04-26T16:08:55.913Z,24.05
2019-04-26T16:11:07.324Z,23.20
2019-04-26T16:13:21.029Z,20.70
2019-04-26T16:15:23.324Z,24.57
2019-04-26T16:17:31.343Z,19.40
2019-04-26T16:19:39.198Z,23.80
2019-04-26T16:21:48.133Z,19.15
2019-04-26T16:23:56.769Z,19.60
2019-04-26T16:26:04.580Z,21.15
2019-04-26T16:28:31.039Z,19.23
2019-04-26T16:30:54.068Z,22.67
2019-04-26T16:33:09.110Z,16.40
2019-04-26T16:37:26.424Z,18.90
2019-04-26T16:41:43.742Z,20.02
2019-04-26T16:43:53.514Z,19.67
2019-04-26T16:46:02.292Z,22.93
2019-04-26T16:48:10.284Z,26.87
2019-04-26T16:50:23.227Z,22.25
2019-04-26T16:52:27.890Z,21.35
2019-04-26T16:54:35.759Z,21.93
2019-04-26T16:56:43.939Z,25.27
2019-04-26T16:58:54.975Z,20.72
2019-04-26T17:00:31.375Z,17.32
2019-04-26T17:01:04.576Z,15.63
2019-04-26T17:03:11.168Z,20.40
2019-04-26T17:05:28.810Z,18.05
2019-04-26T17:07:29.138Z,20.48
2019-04-26T17:09:37.222Z,18.50
2019-04-26T17:09:55.807Z,21.40
2019-04-26T17:11:47.358Z,21.10
2019-04-26T17:13:57.014Z,14.73
2019-04-26T17:16:05.591Z,18.15
2019-04-26T17:18:13.892Z,17.77
2019-04-26T17:20:22.588Z,20.00
2019-04-26T17:22:56.972Z,19.55
2019-04-26T17:25:16.535Z,21.90
2019-04-26T17:27:25.718Z,26.93
2019-04-26T17:29:33.712Z,19.23
2019-04-26T17:31:43.126Z,24.25
2019-04-26T17:33:51.533Z,27.65
2019-04-26T17:36:03.083Z,19.65
2019-04-26T17:38:11.524Z,20.40
2019-04-26T17:40:25.079Z,19.95
2019-04-26T17:42:35.849Z,22.02
2019-04-26T17:44:41.118Z,22.65
2019-04-26T17:46:56.281Z,31.65
2019-04-26T17:49:00.421Z,24.90
2019-04-26T17:51:16.219Z,20.40
2019-04-26T17:53:28.122Z,26.95
2019-04-26T17:55:31.144Z,26.25
2019-04-26T17:57:43.647Z,24.12
2019-04-26T17:59:49.223Z,22.45
2019-04-26T18:02:00.755Z,24.35
2019-04-26T18:04:07.229Z,19.75
2019-04-26T18:06:15.691Z,29.10
2019-04-26T18:08:36.162Z,25.65
2019-04-26T18:10:35.497Z,25.02
2019-04-26T18:12:46.193Z,28.60
2019-04-26T18:14:54.386Z,23.40
2019-04-26T18:17:17.903Z,25.82
2019-04-26T18:19:54.067Z,28.35
2019-04-26T18:22:20.218Z,25.95
2019-04-26T18:24:32.247Z,25.92
2019-04-26T18:26:38.382Z,28.32
2019-04-26T18:28:51.747Z,28.57
2019-04-26T18:30:55.990Z,30.57
2019-04-26T18:33:04.014Z,26.65
2019-04-26T18:35:15.277Z,29.00
2019-04-26T18:37:23.103Z,32.38
2019-04-26T18:39:31.123Z,26.62
2019-04-26T18:41:40.121Z,24.92
2019-04-26T18:43:48.699Z,29.07
2019-04-26T18:45:58.654Z,27.07
2019-04-26T18:48:08.017Z,31.70
2019-04-26T18:50:18.734Z,23.20
2019-04-26T18:52:28.976Z,27.93
2019-04-26T18:54:54.879Z,24.23
2019-04-26T18:57:04.888Z,38.60
2019-04-26T18:59:15.501Z,30.08
2019-04-26T19:01:24.027Z,28.45
2019-04-26T19:03:33.795Z,34.33
2019-04-26T19:05:43.190Z,29.70
2019-04-26T19:07:51.696Z,31.25
2019-04-26T19:10:04.891Z,28.20
2019-04-26T19:12:13.503Z,32.60
2019-04-26T19:14:49.764Z,33.20
2019-04-26T19:17:26.004Z,31.73
2019-04-26T19:19:44.129Z,37.35
2019-04-26T19:21:54.882Z,41.30
2019-04-26T19:24:07.333Z,35.50
2019-04-26T19:26:14.058Z,37.13
2019-04-26T19:28:23.102Z,34.35
2019-04-26T19:30:31.786Z,32.10
2019-04-26T19:32:40.641Z,35.23
2019-04-26T19:34:52.386Z,33.70
2019-04-26T19:37:03.391Z,33.63
2019-04-26T19:39:12.946Z,36.30
2019-04-26T19:41:21.567Z,35.52
2019-04-26T19:43:34.665Z,42.85
2019-04-26T19:46:01.393Z,39.15
2019-04-26T19:48:22.306Z,45.20
2019-04-26T19:50:55.586Z,38.65
2019-04-26T19:53:21.138Z,44.23
2019-04-26T19:55:54.938Z,41.92
2019-04-26T19:58:05.335Z,47.50
2019-04-26T20:00:13.815Z,46.25
2019-04-26T20:02:21.749Z,37.15
2019-04-26T20:04:32.350Z,51.23
2019-04-26T20:06:41.408Z,52.33
2019-04-26T20:08:51.376Z,53.60
2019-04-26T20:10:58.947Z,46.83
2019-04-26T20:13:13.372Z,36.13
2019-04-26T20:15:25.856Z,40.48
2019-04-26T20:17:26.292Z,42.30
2019-04-26T20:19:37.509Z,34.88
2019-04-26T20:21:45.417Z,39.67
2019-04-26T20:23:54.726Z,36.42
2019-04-26T20:26:07.468Z,29.85
2019-04-26T20:28:14.107Z,27.85
2019-04-26T20:30:43.932Z,33.92
2019-04-26T20:32:52.508Z,31.65
2019-04-26T20:35:08.700Z,28.73
2019-04-26T20:37:22.862Z,40.88
2019-04-26T20:39:27.448Z,40.85
2019-04-26T20:41:35.668Z,36.77
2019-04-26T20:43:46.836Z,35.05
2019-04-26T20:46:10.891Z,30.88
2019-04-26T20:48:02.976Z,31.33
2019-04-26T20:50:12.255Z,30.65
2019-04-26T20:52:24.779Z,35.30
2019-04-26T20:54:31.569Z,37.10
2019-04-26T20:56:39.911Z,43.50
2019-04-26T20:58:48.014Z,37.95
2019-04-26T21:00:56.279Z,51.48
2019-04-26T21:03:06.104Z,36.90
2019-04-26T21:05:14.910Z,30.72
2019-04-26T21:07:23.650Z,37.05
2019-04-26T21:09:32.327Z,38.95
2019-04-26T21:11:41.240Z,37.75
2019-04-26T21:13:49.275Z,35.83
2019-04-26T21:15:58.616Z,28.32
2019-04-26T21:18:06.747Z,30.23
2019-04-26T21:20:15.188Z,35.00
2019-04-26T21:22:28.366Z,36.48
2019-04-26T21:24:36.764Z,31.97
2019-04-26T21:26:55.238Z,32.98
2019-04-26T21:29:24.135Z,40.20
2019-04-26T21:32:02.180Z,39.15
2019-04-26T21:34:15.255Z,35.95
2019-04-26T21:36:43.714Z,32.35
2019-04-26T21:39:08.595Z,31.65
2019-04-26T21:41:19.288Z,37.45
2019-04-26T21:43:29.545Z,33.05
2019-04-26T21:45:36.920Z,39.95
2019-04-26T21:47:44.801Z,35.88
2019-04-26T21:49:58.689Z,36.40
2019-04-26T21:52:02.063Z,38.98
2019-04-26T21:54:10.444Z,42.65
2019-04-26T21:56:18.300Z,39.10
2019-04-26T21:58:26.222Z,28.85
2019-04-26T22:00:53.630Z,35.15
2019-04-26T22:03:03.667Z,37.80
2019-04-26T22:05:12.632Z,27.52
2019-04-26T22:07:21.119Z,31.68
2019-04-26T22:09:37.709Z,32.10
2019-04-26T22:11:45.511Z,34.53
2019-04-26T22:14:13.229Z,24.12
2019-04-26T22:16:34.441Z,35.10
2019-04-26T22:18:56.807Z,33.33
2019-04-26T22:21:08.559Z,35.05
2019-04-26T22:23:38.152Z,36.75
2019-04-26T22:25:48.551Z,34.45
2019-04-26T22:28:00.211Z,32.35
2019-04-26T22:30:13.219Z,29.87
2019-04-26T22:32:22.925Z,35.25
2019-04-26T22:34:31.153Z,29.32
2019-04-26T22:36:39.166Z,30.68
2019-04-26T22:38:47.173Z,29.75
2019-04-26T22:40:56.237Z,33.90
2019-04-26T22:43:16.270Z,34.00
2019-04-26T22:45:44.172Z,33.73
2019-04-26T22:48:11.634Z,32.50
2019-04-26T22:50:21.043Z,30.75
2019-04-26T22:52:27.583Z,34.60
2019-04-26T22:54:37.725Z,33.13
2019-04-26T22:56:45.989Z,31.75
2019-04-26T22:58:53.923Z,26.15
2019-04-26T23:01:03.566Z,27.07
2019-04-26T23:03:11.568Z,34.08
2019-04-26T23:05:19.413Z,34.25
2019-04-26T23:07:27.299Z,33.67
2019-04-26T23:09:34.999Z,32.80
2019-04-26T23:11:46.634Z,30.02
2019-04-26T23:14:17.801Z,27.70
2019-04-26T23:17:01.660Z,29.82
2019-04-26T23:19:19.153Z,33.85
2019-04-26T23:21:30.192Z,32.60
2019-04-26T23:23:40.953Z,35.30
2019-04-26T23:25:47.632Z,24.12
2019-04-26T23:27:58.266Z,29.37
2019-04-26T23:30:05.351Z,30.88
2019-04-26T23:32:18.461Z,30.30
2019-04-26T23:34:22.827Z,38.02
2019-04-26T23:36:32.064Z,32.42
2019-04-26T23:38:39.943Z,33.33
2019-04-26T23:40:47.741Z,28.02
2019-04-26T23:42:55.765Z,29.70
2019-04-26T23:45:04.723Z,35.65
2019-04-26T23:47:21.095Z,31.57
2019-04-26T23:49:25.053Z,29.02
2019-04-26T23:51:31.368Z,31.42
2019-04-26T23:53:39.088Z,30.27
2019-04-26T23:55:46.951Z,26.40
2019-04-26T23:57:54.821Z,29.25
